Time;durP1;ratioP1;P1;durP2;ratioP2;P2;SDS_P1;SDS_P2;PMS_P1;PMS_P2;Temp;Humidity;BMP_temperature;BMP_pressure;BME280_temperature;BME280_humidity;BME280_pressure;Samples;Min_cycle;Max_cycle;Signal;HPM_P1;HPM_P2
2022/06/06 00:01:59;;;;;;;73.47;34.15;;;;;;;13.86;99.08;101330.94;5040033;28;20388;-56
2022/06/06 00:04:27;;;;;;;77.05;34.45;;;;;;;13.85;98.77;101331.13;5037522;28;20033;-57
2022/06/06 00:06:54;;;;;;;73.53;32.38;;;;;;;13.88;98.89;101328.13;5037942;28;20080;-54
2022/06/06 00:09:19;;;;;;;72.47;34.13;;;;;;;13.87;98.52;101313.09;5039809;28;20040;-56
2022/06/06 00:11:44;;;;;;;73.95;33.33;;;;;;;13.86;98.82;101317.59;5042251;28;20013;-56
2022/06/06 00:14:11;;;;;;;71.32;34.28;;;;;;;13.93;98.72;101328.41;5037773;28;20025;-55
2022/06/06 00:16:37;;;;;;;72.88;32.92;;;;;;;13.92;98.98;101324.91;5036653;28;20059;-56
2022/06/06 00:19:04;;;;;;;78.03;33.58;;;;;;;13.92;98.90;101326.75;5041331;28;20115;-56
2022/06/06 00:21:30;;;;;;;70.68;33.50;;;;;;;13.94;98.65;101328.22;5036313;28;20026;-56
2022/06/06 00:23:59;;;;;;;75.95;34.22;;;;;;;13.94;98.74;101328.22;5033904;28;20369;-55
2022/06/06 00:26:26;;;;;;;65.32;32.45;;;;;;;13.93;98.39;101323.91;5037872;28;20086;-57
2022/06/06 00:28:52;;;;;;;66.15;31.75;;;;;;;13.96;97.98;101322.69;5041184;28;20135;-55
2022/06/06 00:36:55;;;;;;;60.83;30.77;;;;;;;13.98;98.30;101314.50;5040761;28;20928;-55
2022/06/06 00:39:20;;;;;;;63.75;31.55;;;;;;;13.99;98.09;101311.66;5042952;28;20037;-55
2022/06/06 00:41:49;;;;;;;64.30;30.58;;;;;;;13.99;97.84;101316.16;5037920;28;20025;-55
2022/06/06 00:44:23;;;;;;;63.50;30.65;;;;;;;13.98;97.88;101317.19;5040911;28;20212;-53
2022/06/06 00:47:24;;;;;;;59.15;29.08;;;;;;;13.98;98.36;101314.50;5044257;28;20032;-55
2022/06/06 00:50:02;;;;;;;59.35;29.48;;;;;;;13.97;98.35;101310.19;5036818;28;20084;-56
2022/06/06 00:52:34;;;;;;;57.95;29.25;;;;;;;13.95;98.50;101300.50;5042430;28;20550;-54
2022/06/06 00:55:04;;;;;;;58.45;28.85;;;;;;;13.95;98.31;101313.03;5040989;28;20311;-52
2022/06/06 00:57:37;;;;;;;57.08;29.45;;;;;;;13.92;98.48;101306.22;5043139;28;20033;-56
2022/06/06 01:00:09;;;;;;;58.47;28.63;;;;;;;13.91;98.78;101306.41;5043330;28;20076;-56
2022/06/06 01:02:36;;;;;;;59.22;28.45;;;;;;;13.90;98.71;101302.91;5040823;28;20037;-55
2022/06/06 01:05:02;;;;;;;59.67;28.88;;;;;;;13.88;99.33;101302.25;5041507;28;20038;-56
2022/06/06 01:07:28;;;;;;;61.53;29.10;;;;;;;13.85;99.75;101305.25;5040621;28;20025;-54
2022/06/06 01:09:54;;;;;;;61.25;29.38;;;;;;;13.83;99.98;101293.94;5039826;28;20059;-56
2022/06/06 01:12:22;;;;;;;69.65;30.45;;;;;;;13.84;100.00;101305.44;5042351;28;20041;-53
2022/06/06 01:15:00;;;;;;;68.90;31.48;;;;;;;13.80;100.00;101302.31;5041375;28;20037;-55
2022/06/06 01:17:54;;;;;;;65.80;30.60;;;;;;;13.80;100.00;101302.31;5039089;28;20086;-56
2022/06/06 01:21:04;;;;;;;68.07;30.15;;;;;;;13.80;100.00;101306.81;5042689;28;20393;-56
2022/06/06 01:23:48;;;;;;;68.68;30.33;;;;;;;13.80;100.00;101304.97;5020558;28;20076;-54
2022/06/06 01:26:41;;;;;;;65.70;29.60;;;;;;;13.80;100.00;101307.63;5041465;28;20033;-56
2022/06/06 01:29:15;;;;;;;64.43;29.58;;;;;;;13.81;100.00;101308.47;5037366;28;20036;-55
2022/06/06 01:31:49;;;;;;;61.45;28.25;;;;;;;13.81;100.00;101300.47;5037927;28;20104;-54
2022/06/06 01:34:25;;;;;;;59.83;28.67;;;;;;;13.80;100.00;101302.31;5042296;28;20505;-56
2022/06/06 01:36:53;;;;;;;57.30;25.45;;;;;;;13.81;100.00;101303.97;5038093;28;20040;-56
2022/06/06 01:39:21;;;;;;;55.83;25.58;;;;;;;13.81;100.00;101303.13;5035750;28;20524;-55
2022/06/06 01:42:11;;;;;;;54.03;24.88;;;;;;;13.81;100.00;101311.13;5043705;28;20029;-54
2022/06/06 01:44:53;;;;;;;58.75;26.20;;;;;;;13.80;100.00;101310.31;5043246;28;20074;-56
2022/06/06 01:47:26;;;;;;;49.15;23.33;;;;;;;13.81;100.00;101308.47;5039396;28;20447;-52
2022/06/06 01:49:57;;;;;;;51.08;24.60;;;;;;;13.82;100.00;101305.63;5040097;28;20029;-55
2022/06/06 01:52:23;;;;;;;53.92;25.27;;;;;;;13.81;100.00;101313.81;5039532;28;20033;-54
2022/06/06 01:54:56;;;;;;;53.72;26.27;;;;;;;13.83;100.00;101301.94;5040452;28;20031;-55
2022/06/06 01:57:23;;;;;;;58.88;27.25;;;;;;;13.83;100.00;101301.94;5041642;28;20036;-54
2022/06/06 01:59:50;;;;;;;79.00;36.47;;;;;;;13.85;100.00;101305.25;5042965;28;20017;-56
2022/06/06 02:02:16;;;;;;;80.88;35.38;;;;;;;13.86;100.00;101303.41;5038177;28;20031;-55
2022/06/06 02:04:41;;;;;;;90.03;38.78;;;;;;;13.85;100.00;101293.75;5039788;28;20020;-56
2022/06/06 02:07:07;;;;;;;97.07;42.45;;;;;;;13.85;100.00;101294.56;5042760;28;20558;-54
2022/06/06 02:09:33;;;;;;;92.97;41.25;;;;;;;13.87;100.00;101297.88;5037982;28;20025;-55
2022/06/06 02:11:59;;;;;;;106.82;44.25;;;;;;;13.88;100.00;101298.75;5042997;28;20280;-55
2022/06/06 02:14:25;;;;;;;108.15;43.65;;;;;;;13.88;100.00;101288.06;5043008;28;20028;-55
2022/06/06 02:16:51;;;;;;;114.93;46.15;;;;;;;13.88;100.00;101277.41;5040855;28;20094;-53
2022/06/06 02:19:16;;;;;;;114.13;47.35;;;;;;;13.89;100.00;101277.22;5041187;28;20446;-53
2022/06/06 02:21:42;;;;;;;111.63;48.88;;;;;;;13.92;100.00;101276.84;5036949;28;20028;-54
2022/06/06 02:24:07;;;;;;;111.82;48.25;;;;;;;13.94;100.00;101271.31;5042226;28;20480;-56
2022/06/06 02:26:33;;;;;;;111.47;48.67;;;;;;;13.95;100.00;101267.63;5039427;28;20031;-56
2022/06/06 02:28:58;;;;;;;108.22;48.08;;;;;;;13.98;100.00;101269.09;5038217;28;20029;-55
2022/06/06 02:31:23;;;;;;;106.05;48.95;;;;;;;13.99;100.00;101274.28;5039836;28;20374;-56
2022/06/06 02:33:49;;;;;;;111.55;49.72;;;;;;;14.00;100.00;101267.09;5039589;28;20024;-54
2022/06/06 02:36:14;;;;;;;115.85;51.35;;;;;;;14.00;100.00;101275.09;5039983;28;20381;-56
2022/06/06 02:38:39;;;;;;;109.13;47.83;;;;;;;14.00;100.00;101267.09;5039778;28;20021;-54
2022/06/06 02:41:07;;;;;;;102.75;49.33;;;;;;;13.99;100.00;101274.28;5039270;28;20017;-54
2022/06/06 02:43:43;;;;;;;106.90;49.70;;;;;;;14.00;100.00;101275.09;5040932;28;20017;-55
2022/06/06 02:46:10;;;;;;;106.15;48.42;;;;;;;14.00;100.00;101281.25;5041391;28;20033;-55
2022/06/06 02:48:36;;;;;;;102.13;47.17;;;;;;;14.00;100.00;101277.78;5037779;28;20476;-56
2022/06/06 02:51:03;;;;;;;100.20;48.63;;;;;;;14.01;100.00;101282.94;5041309;28;20025;-53
2022/06/06 02:53:29;;;;;;;99.18;47.22;;;;;;;14.00;100.00;101277.78;5043424;28;20017;-56
2022/06/06 02:55:56;;;;;;;97.85;46.60;;;;;;;14.03;100.00;101274.72;5045625;28;20547;-55
2022/06/06 02:58:23;;;;;;;98.03;47.05;;;;;;;14.02;100.00;101279.25;5045661;28;20028;-55
2022/06/06 03:00:48;;;;;;;99.10;47.70;;;;;;;14.03;100.00;101272.88;5041620;28;20211;-55
2022/06/06 03:03:14;;;;;;;101.30;49.25;;;;;;;14.02;100.00;101273.91;5041790;28;20055;-55
2022/06/06 03:05:54;;;;;;;106.75;48.97;;;;;;;14.02;100.00;101268.56;5040326;28;20034;-55
2022/06/06 03:08:51;;;;;;;100.72;48.20;;;;;;;14.00;100.00;101273.25;5039928;28;20574;-55
2022/06/06 03:11:28;;;;;;;112.22;50.53;;;;;;;13.98;100.00;101269.09;5040510;28;20124;-56
2022/06/06 03:14:00;;;;;;;100.85;48.88;;;;;;;13.97;100.00;101275.47;5040529;28;20032;-54
2022/06/06 03:23:13;;;;;;;115.32;51.15;;;;;;;13.94;100.00;101271.31;5042981;28;20129;-55
2022/06/06 03:25:43;;;;;;;122.90;49.95;;;;;;;13.92;100.00;101274.16;5040935;28;20020;-55
2022/06/06 03:28:22;;;;;;;115.10;50.72;;;;;;;13.91;100.00;101271.69;5039692;28;20024;-55
2022/06/06 03:31:04;;;;;;;108.22;49.90;;;;;;;13.91;100.00;101280.53;5036707;28;20028;-55
2022/06/06 03:33:42;;;;;;;109.05;49.10;;;;;;;13.92;100.00;101298.22;5037454;28;20090;-55
2022/06/06 03:36:21;;;;;;;104.70;48.63;;;;;;;13.88;100.00;101290.75;5037556;28;20017;-53
2022/06/06 03:39:02;;;;;;;98.32;48.60;;;;;;;13.87;100.00;101289.06;5039517;28;20025;-55
2022/06/06 03:41:41;;;;;;;95.63;47.13;;;;;;;13.81;100.00;101290.59;5041459;28;20032;-55
2022/06/06 03:44:44;;;;;;;95.90;46.40;;;;;;;13.83;99.95;101285.91;5037261;28;20123;-56
2022/06/06 03:47:12;;;;;;;94.75;45.13;;;;;;;13.83;99.71;101293.09;5037114;28;20020;-55
2022/06/06 03:49:59;;;;;;;101.35;45.55;;;;;;;13.80;99.39;101291.63;5040563;28;20116;-55
2022/06/06 03:52:46;;;;;;;97.53;45.10;;;;;;;13.79;99.53;101284.63;5037983;28;20040;-54
2022/06/06 03:55:23;;;;;;;87.40;44.13;;;;;;;13.77;99.73;101285.81;5044909;28;20097;-54
2022/06/06 03:57:52;;;;;;;83.22;43.83;;;;;;;13.74;99.54;101281.66;5038792;28;20044;-56
2022/06/06 04:00:18;;;;;;;79.72;40.70;;;;;;;13.75;99.20;101287.84;5035872;28;20025;-56
2022/06/06 04:02:45;;;;;;;73.60;39.75;;;;;;;13.74;98.75;101296.84;5041549;28;20029;-54
2022/06/06 04:05:17;;;;;;;69.72;37.95;;;;;;;13.72;98.18;101305.03;5041614;28;20400;-53
2022/06/06 04:07:43;;;;;;;68.88;37.35;;;;;;;13.68;97.76;101297.59;5036960;28;20049;-53
2022/06/06 04:10:10;;;;;;;73.47;36.13;;;;;;;13.62;97.89;101299.13;5039512;28;20464;-55
2022/06/06 04:12:58;;;;;;;69.60;37.42;;;;;;;13.58;98.00;101300.47;5045753;28;20025;-52
2022/06/06 04:15:26;;;;;;;70.60;37.70;;;;;;;13.56;97.66;101299.81;5042893;28;20072;-53
2022/06/06 04:18:09;;;;;;;67.78;38.05;;;;;;;13.54;97.54;101305.34;5050266;28;20512;-53
2022/06/06 04:20:50;;;;;;;66.88;37.33;;;;;;;13.53;97.84;101300.19;5050566;28;20100;-54
2022/06/06 04:23:28;;;;;;;72.43;37.28;;;;;;;13.53;97.79;101308.19;5038693;28;20025;-54
2022/06/06 04:26:17;;;;;;;64.15;36.22;;;;;;;13.51;97.77;101311.03;5039630;28;20631;-52
2022/06/06 04:28:48;;;;;;;66.60;35.47;;;;;;;13.51;97.33;101307.53;5044168;28;20064;-55
2022/06/06 04:31:32;;;;;;;69.70;36.05;;;;;;;13.50;97.23;101312.06;5044331;28;20020;-52
2022/06/06 04:34:15;;;;;;;64.90;34.85;;;;;;;13.49;97.47;101309.56;5042559;28;20025;-54
2022/06/06 04:37:07;;;;;;;61.85;34.88;;;;;;;13.45;97.23;101319.75;5054763;28;20032;-55
2022/06/06 04:39:44;;;;;;;58.47;33.47;;;;;;;13.41;96.94;101312.28;5048348;28;20027;-54
2022/06/06 04:42:19;;;;;;;55.92;31.73;;;;;;;13.37;96.32;101325.16;5054847;28;20047;-55
2022/06/06 04:45:17;;;;;;;54.28;30.92;;;;;;;13.31;96.19;101332.03;5051444;28;20087;-52
2022/06/06 04:47:43;;;;;;;53.25;31.65;;;;;;;13.24;95.61;101320.38;5029803;28;20041;-55
2022/06/06 04:50:20;;;;;;;53.85;31.65;;;;;;;13.21;95.47;101320.75;5055026;28;20384;-54
2022/06/06 04:52:51;;;;;;;50.65;29.25;;;;;;;13.16;95.85;101320.41;5055434;28;20462;-54
2022/06/06 04:55:18;;;;;;;51.22;30.52;;;;;;;13.11;95.69;101329.94;5050374;28;20029;-56
2022/06/06 04:57:48;;;;;;;51.17;30.25;;;;;;;13.09;95.65;101323.97;5049082;28;20036;-53
2022/06/06 05:00:14;;;;;;;48.55;29.83;;;;;;;13.07;95.31;101324.16;5049486;28;20017;-52
2022/06/06 05:02:40;;;;;;;49.75;30.77;;;;;;;13.08;95.31;101325.81;5042261;28;20031;-53
2022/06/06 05:05:05;;;;;;;50.83;31.65;;;;;;;13.11;95.57;101328.13;5050096;28;20392;-53
2022/06/06 05:07:49;;;;;;;48.90;31.13;;;;;;;13.12;94.83;101332.44;5050172;28;20024;-55
2022/06/06 05:10:19;;;;;;;47.47;31.33;;;;;;;13.14;95.14;101327.75;5045964;28;20029;-55
2022/06/06 05:13:10;;;;;;;53.67;33.45;;;;;;;13.15;94.75;101331.25;5050081;28;20024;-55
2022/06/06 05:16:02;;;;;;;50.80;32.50;;;;;;;13.15;94.39;101336.59;5047454;28;20112;-55
2022/06/06 05:18:33;;;;;;;48.33;33.15;;;;;;;13.16;94.28;101331.09;5056442;28;20033;-53
2022/06/06 05:21:18;;;;;;;45.08;32.15;;;;;;;13.13;94.10;101328.78;5050078;28;20135;-52
2022/06/06 05:23:50;;;;;;;47.17;32.10;;;;;;;13.13;93.82;101326.09;5045960;28;20448;-52
2022/06/06 05:26:55;;;;;;;45.25;30.70;;;;;;;13.10;93.04;101328.28;5048089;28;20139;-52
2022/06/06 05:29:53;;;;;;;44.83;32.88;;;;;;;13.12;93.36;101327.09;5008272;28;20044;-54
2022/06/06 05:32:21;;;;;;;44.28;31.85;;;;;;;13.14;93.15;101335.75;5023824;28;20037;-55
2022/06/06 05:34:56;;;;;;;44.05;31.25;;;;;;;13.15;93.04;101334.75;5050472;28;20074;-53
2022/06/06 05:37:30;;;;;;;44.22;29.58;;;;;;;13.15;92.92;101341.94;5046399;28;20025;-55
2022/06/06 05:40:04;;;;;;;44.38;30.65;;;;;;;13.16;92.95;101348.91;5042017;28;20043;-52
2022/06/06 05:43:03;;;;;;;37.50;29.00;;;;;;;13.15;92.66;101349.94;5054218;28;20559;-54
2022/06/06 05:45:31;;;;;;;39.42;29.52;;;;;;;13.15;92.32;101349.94;5048036;28;20547;-52
2022/06/06 05:48:29;;;;;;;43.05;30.83;;;;;;;13.14;92.40;101343.75;5047044;28;20025;-52
2022/06/06 05:51:18;;;;;;;40.85;29.88;;;;;;;13.14;92.05;101349.09;5043908;28;20033;-56
2022/06/06 05:54:11;;;;;;;40.60;30.65;;;;;;;13.18;92.33;101342.44;5050026;28;20028;-52
2022/06/06 05:56:37;;;;;;;39.30;29.27;;;;;;;13.18;91.56;101344.28;5050460;28;20516;-54
2022/06/06 05:59:17;;;;;;;38.92;28.77;;;;;;;13.20;91.37;101348.44;5048177;28;20098;-52
2022/06/06 06:01:51;;;;;;;33.67;26.52;;;;;;;13.18;90.65;101339.78;5044235;28;20037;-53
2022/06/06 06:04:40;;;;;;;30.85;25.00;;;;;;;13.15;90.32;101336.59;5048031;28;20021;-54
2022/06/06 06:07:05;;;;;;;32.97;22.52;;;;;;;13.14;89.78;101337.59;5045887;28;20029;-53
2022/06/06 06:09:51;;;;;;;27.65;22.45;;;;;;;13.14;89.45;101345.59;5053497;28;20530;-55
2022/06/06 06:12:55;;;;;;;31.60;23.52;;;;;;;13.17;90.13;101348.78;5047592;28;20017;-53
2022/06/06 06:15:37;;;;;;;27.52;20.48;;;;;;;13.18;89.51;101337.09;5007534;28;20045;-55
2022/06/06 06:18:08;;;;;;;28.08;20.35;;;;;;;13.23;89.16;101356.06;5053100;28;20021;-53
2022/06/06 06:20:52;;;;;;;24.17;18.85;;;;;;;13.24;88.69;101355.06;5048528;28;20086;-52
2022/06/06 06:23:23;;;;;;;22.95;17.88;;;;;;;13.27;88.51;101353.88;5049888;28;20036;-54
2022/06/06 06:25:49;;;;;;;24.15;18.05;;;;;;;13.39;88.87;101357.81;5054152;28;20020;-52
2022/06/06 06:28:15;;;;;;;21.02;16.38;;;;;;;13.38;87.43;101360.66;5048494;28;20408;-52
2022/06/06 06:31:05;;;;;;;20.83;14.82;;;;;;;13.38;87.17;101361.50;5046870;28;20016;-55
2022/06/06 06:33:57;;;;;;;19.92;14.02;;;;;;;13.39;86.97;101371.16;5047467;28;20358;-55
2022/06/06 06:36:35;;;;;;;17.67;12.60;;;;;;;13.38;86.23;101358.84;5053038;28;20033;-56
2022/06/06 06:39:17;;;;;;;17.83;13.35;;;;;;;13.49;86.67;101373.59;5041305;28;20523;-55
2022/06/06 06:42:08;;;;;;;18.23;11.80;;;;;;;13.53;86.10;101374.91;5044731;28;20064;-54
2022/06/06 06:44:44;;;;;;;16.48;11.82;;;;;;;13.64;86.03;101379.84;5046860;28;20028;-54
2022/06/06 06:47:26;;;;;;;16.98;13.35;;;;;;;13.74;86.25;101385.78;5046716;28;20545;-52
2022/06/06 06:50:01;;;;;;;19.67;13.55;;;;;;;13.83;86.02;101394.53;5042596;28;20040;-53
2022/06/06 06:52:35;;;;;;;15.52;12.38;;;;;;;13.81;85.28;101386.72;5046028;28;20143;-55
2022/06/06 06:55:27;;;;;;;16.08;11.88;;;;;;;13.82;85.14;101395.56;5047628;28;20053;-54
2022/06/06 06:58:25;;;;;;;15.15;11.77;;;;;;;13.85;84.57;101390.69;5043708;28;20529;-55
2022/06/06 07:00:55;;;;;;;13.52;10.90;;;;;;;13.93;84.43;101398.66;5047328;28;20096;-55
2022/06/06 07:09:06;;;;;;;18.40;10.02;;;;;;;14.01;82.44;101402.25;5044488;28;20044;-55
2022/06/06 07:11:46;;;;;;;10.60;8.40;;;;;;;14.03;81.70;101400.25;5050586;28;20063;-53
2022/06/06 07:14:40;;;;;;;11.98;8.40;;;;;;;14.05;81.30;101407.06;5053742;28;20021;-52
2022/06/06 07:17:08;;;;;;;11.90;7.90;;;;;;;14.09;81.13;101404.88;5046398;28;20086;-56
2022/06/06 07:19:47;;;;;;;13.02;7.68;;;;;;;14.21;80.98;101396.25;5047602;28;20059;-55
2022/06/06 07:22:16;;;;;;;9.07;7.28;;;;;;;14.27;80.37;101392.03;5047902;28;20032;-56
2022/06/06 07:24:42;;;;;;;7.57;6.85;;;;;;;14.30;79.03;101399.69;5044598;28;20742;-55
2022/06/06 07:27:10;;;;;;;11.38;7.80;;;;;;;14.26;78.78;101393.88;5051179;28;20025;-55
2022/06/06 07:29:36;;;;;;;8.93;7.70;;;;;;;14.29;78.60;101400.69;5049668;28;20029;-54
2022/06/06 07:32:04;;;;;;;8.25;6.40;;;;;;;14.31;77.72;101412.03;5048033;28;20635;-54
2022/06/06 07:34:32;;;;;;;8.40;6.30;;;;;;;14.31;77.83;101396.00;5043833;28;20075;-56
2022/06/06 07:37:21;;;;;;;9.52;6.68;;;;;;;14.43;77.85;101393.72;5048658;28;20098;-54
2022/06/06 07:40:08;;;;;;;7.72;6.38;;;;;;;14.50;77.71;101395.50;5047120;28;20500;-55
2022/06/06 07:43:04;;;;;;;6.57;5.75;;;;;;;14.55;77.65;101402.97;5046148;28;20087;-55
2022/06/06 07:45:38;;;;;;;7.28;6.60;;;;;;;14.57;78.03;101416.97;5048921;28;20516;-56
2022/06/06 07:48:24;;;;;;;5.85;5.13;;;;;;;14.54;77.33;101415.50;5045787;28;20017;-53
2022/06/06 07:51:11;;;;;;;6.22;5.28;;;;;;;14.48;76.48;101415.41;5046707;28;20384;-55
2022/06/06 07:53:40;;;;;;;7.15;5.00;;;;;;;14.44;76.40;101425.63;5045986;28;20056;-56
2022/06/06 07:56:30;;;;;;;7.60;4.75;;;;;;;14.39;75.63;101424.47;5049861;28;20028;-52
2022/06/06 07:59:05;;;;;;;8.77;4.47;;;;;;;14.53;76.48;101427.22;5043012;28;20392;-55
2022/06/06 08:01:50;;;;;;;4.85;4.15;;;;;;;14.64;76.76;101427.78;5045849;28;20074;-56
2022/06/06 08:04:41;;;;;;;5.28;3.53;;;;;;;14.68;75.35;101413.03;5026858;28;20056;-53
2022/06/06 08:07:44;;;;;;;5.40;3.63;;;;;;;14.70;74.63;101411.81;5023358;28;20174;-54
2022/06/06 08:10:25;;;;;;;3.70;3.35;;;;;;;14.74;73.92;101407.75;5040645;28;20456;-56
2022/06/06 08:13:18;;;;;;;4.50;3.40;;;;;;;14.85;74.50;101426.03;5044557;28;20044;-55
2022/06/06 08:15:58;;;;;;;5.28;3.42;;;;;;;14.85;74.36;101414.53;5044321;28;20041;-56
2022/06/06 08:18:53;;;;;;;8.15;3.35;;;;;;;14.82;74.38;101407.69;5040628;28;20460;-56
2022/06/06 08:21:33;;;;;;;5.22;3.63;;;;;;;14.78;74.29;101413.59;5041180;28;20112;-54
2022/06/06 08:24:01;;;;;;;3.97;2.80;;;;;;;14.70;74.17;101411.00;5040016;28;20076;-56
2022/06/06 08:26:27;;;;;;;7.65;3.55;;;;;;;14.65;73.67;101410.72;5040064;28;20032;-56
2022/06/06 08:28:53;;;;;;;5.10;3.72;;;;;;;14.60;73.58;101403.25;5041329;28;20037;-56
2022/06/06 08:31:19;;;;;;;4.63;3.25;;;;;;;14.61;73.78;101404.09;5039386;28;20103;-57
2022/06/06 08:33:45;;;;;;;5.63;3.33;;;;;;;14.59;73.45;101406.09;5040680;28;20083;-55
2022/06/06 08:36:25;;;;;;;4.28;3.72;;;;;;;14.70;74.21;101402.97;5026223;28;20036;-55
2022/06/06 08:39:14;;;;;;;8.90;4.10;;;;;;;14.86;74.56;101402.81;5042880;28;20036;-56
2022/06/06 08:41:45;;;;;;;6.80;3.88;;;;;;;14.87;73.46;101399.94;5039934;28;20019;-57
2022/06/06 08:44:39;;;;;;;5.20;3.95;;;;;;;14.90;73.20;101398.75;5038856;28;20037;-56
2022/06/06 08:47:13;;;;;;;4.60;4.07;;;;;;;15.02;73.55;101386.53;5040907;28;20036;-56
2022/06/06 08:53:14;;;;;;;4.40;3.83;;;;;;;15.20;72.67;101391.50;5034187;28;20515;-57
2022/06/06 08:55:51;;;;;;;4.70;4.22;;;;;;;15.46;73.02;101396.34;5043240;28;20408;-55
2022/06/06 08:58:41;;;;;;;7.50;3.72;;;;;;;15.56;71.68;101380.81;5039313;28;20404;-57
2022/06/06 09:01:31;;;;;;;5.05;3.40;;;;;;;15.65;70.66;101384.25;5045849;28;20032;-56
2022/06/06 09:04:24;;;;;;;6.80;3.60;;;;;;;15.82;70.44;101404.38;5046089;28;20040;-56
2022/06/06 09:07:24;;;;;;;4.40;3.55;;;;;;;15.86;69.97;101399.47;5050520;28;20104;-55
2022/06/06 09:10:27;;;;;;;3.85;3.10;;;;;;;15.90;70.46;101390.88;4989362;28;20033;-56
2022/06/06 09:13:19;;;;;;;5.00;2.55;;;;;;;16.05;69.99;101394.28;5039949;28;20036;-55
2022/06/06 09:16:01;;;;;;;7.15;3.03;;;;;;;16.07;69.51;101389.56;5042189;28;20032;-55
2022/06/06 09:18:51;;;;;;;3.15;2.70;;;;;;;16.03;69.34;101379.44;5041974;28;21412;-56
2022/06/06 09:21:25;;;;;;;4.07;2.88;;;;;;;15.93;69.04;101400.38;5041148;28;20485;-54
2022/06/06 09:24:17;;;;;;;5.45;2.90;;;;;;;16.03;68.80;101399.03;5045271;28;20091;-55
2022/06/06 09:27:15;;;;;;;5.03;3.55;;;;;;;16.13;68.45;101381.78;5044293;28;20485;-54
2022/06/06 09:29:40;;;;;;;8.02;4.00;;;;;;;16.23;68.24;101367.03;5046926;28;20024;-56
2022/06/06 09:32:15;;;;;;;7.05;4.18;;;;;;;16.39;68.17;101373.94;5045323;28;20036;-55
2022/06/06 09:34:51;;;;;;;7.15;4.25;;;;;;;16.35;67.40;101368.16;5043349;28;20029;-56
2022/06/06 09:37:28;;;;;;;6.32;4.32;;;;;;;16.37;68.00;101351.88;5041231;28;20401;-56
2022/06/06 09:39:57;;;;;;;8.93;4.68;;;;;;;16.60;67.86;101352.44;5045412;28;20377;-56
2022/06/06 09:43:00;;;;;;;6.55;5.00;;;;;;;16.83;67.05;101352.19;5043739;28;20031;-56
2022/06/06 09:45:31;;;;;;;7.50;4.82;;;;;;;17.01;67.44;101355.13;5044843;28;20241;-55
2022/06/06 09:48:12;;;;;;;6.22;4.40;;;;;;;17.15;65.69;101355.19;5042732;28;20061;-55
2022/06/06 09:51:02;;;;;;;7.57;4.10;;;;;;;17.09;64.68;101350.63;5040104;28;20548;-56
2022/06/06 10:00:08;;;;;;;6.97;3.88;;;;;;;17.35;62.91;101356.09;5043677;28;20507;-56
2022/06/06 10:03:01;;;;;;;6.97;3.75;;;;;;;17.19;61.16;101346.53;5039599;28;20064;-55
2022/06/06 10:06:01;;;;;;;3.25;2.53;;;;;;;16.91;60.36;101343.13;5043592;28;20044;-56
2022/06/06 10:08:54;;;;;;;5.65;2.67;;;;;;;16.71;60.17;101332.28;5046133;28;20092;-56
2022/06/06 10:11:29;;;;;;;3.50;2.45;;;;;;;16.75;61.44;101332.72;5046617;28;20121;-55
2022/06/06 10:14:25;;;;;;;5.65;2.70;;;;;;;16.92;61.75;101326.81;5046121;28;20025;-55
2022/06/06 10:16:50;;;;;;;4.65;2.30;;;;;;;17.01;61.31;101338.19;5044541;28;20040;-55
2022/06/06 10:19:52;;;;;;;5.20;2.20;;;;;;;17.06;60.89;101334.91;5048123;28;20032;-56
2022/06/06 10:22:18;;;;;;;2.67;2.08;;;;;;;17.23;60.98;101334.38;5048392;28;20024;-55
2022/06/06 10:25:05;;;;;;;3.67;1.80;;;;;;;17.51;60.75;101336.91;5048343;28;20032;-54
2022/06/06 10:28:03;;;;;;;4.22;1.90;;;;;;;17.76;60.23;101339.03;5047668;28;20112;-55
2022/06/06 10:30:49;;;;;;;2.65;1.73;;;;;;;17.63;59.63;101324.53;5046345;28;20075;-56
2022/06/06 10:33:52;;;;;;;2.03;1.50;;;;;;;17.39;59.67;101329.66;5049570;28;20117;-57
2022/06/06 10:36:50;;;;;;;2.05;1.40;;;;;;;17.21;59.80;101340.97;5045526;28;20025;-55
2022/06/06 10:39:37;;;;;;;4.00;1.70;;;;;;;17.03;61.08;101323.56;5043390;28;20044;-55
2022/06/06 10:42:17;;;;;;;4.45;1.60;;;;;;;16.71;62.15;101334.97;5049894;28;20036;-55
2022/06/06 10:45:19;;;;;;;4.93;1.77;;;;;;;16.47;63.84;101344.28;5047231;28;20032;-54
2022/06/06 10:48:15;;;;;;;4.28;1.92;;;;;;;16.17;65.37;101332.13;5040956;28;21185;-55
2022/06/06 10:53:46;;;;;;;3.22;2.30;;;;;;;15.98;69.03;101337.16;5043170;28;20039;-56
2022/06/06 10:56:42;;;;;;;5.35;2.08;;;;;;;16.02;68.59;101332.25;5036209;28;20021;-56
2022/06/06 10:59:46;;;;;;;5.05;1.60;;;;;;;16.07;66.02;101340.50;5037995;28;20020;-56
2022/06/06 11:02:33;;;;;;;3.15;1.30;;;;;;;16.39;64.65;101339.91;5026206;28;20064;-56
2022/06/06 11:05:32;;;;;;;3.55;1.58;;;;;;;16.77;62.93;101325.28;5035724;28;20078;-56
2022/06/06 11:07:57;;;;;;;;;;;;;;;17.04;62.48;101319.00;5041243;28;20110;-55
2022/06/06 11:10:49;;;;;;;3.77;1.20;;;;;;;17.23;61.16;101325.47;5042158;28;20296;-56
2022/06/06 11:13:41;;;;;;;2.78;1.50;;;;;;;17.46;60.94;101325.13;5042711;28;20291;-55
2022/06/06 11:16:39;;;;;;;3.50;1.60;;;;;;;17.61;61.22;101318.53;5043564;28;20036;-52
2022/06/06 11:19:34;;;;;;;4.00;1.55;;;;;;;17.94;61.68;101309.72;5043211;28;20479;-57
2022/06/06 11:22:15;;;;;;;3.17;1.50;;;;;;;18.20;60.54;101308.81;5041951;28;20083;-56
2022/06/06 11:25:13;;;;;;;6.50;2.00;;;;;;;18.37;60.16;101307.34;5040779;28;20047;-56
2022/06/06 11:28:06;;;;;;;4.35;1.80;;;;;;;18.23;59.71;101295.81;5046644;28;20032;-56
2022/06/06 11:30:46;;;;;;;4.38;1.50;;;;;;;18.22;60.24;101307.63;5043387;28;20074;-56
2022/06/06 11:33:39;;;;;;;3.08;1.30;;;;;;;18.17;59.52;101296.63;5040404;28;20025;-56
2022/06/06 11:36:41;;;;;;;4.90;1.40;;;;;;;18.05;59.06;101308.25;5043575;28;20071;-54
2022/06/06 11:40:07;;;;;;;3.28;1.48;;;;;;;17.96;58.44;101294.19;5040710;28;20043;-55
2022/06/06 11:42:56;;;;;;;2.88;1.27;;;;;;;17.88;58.72;101299.75;5049298;28;20550;-56
2022/06/06 11:45:27;;;;;;;7.18;1.30;;;;;;;17.84;58.31;101296.66;5045733;28;20111;-52
2022/06/06 11:48:28;;;;;;;3.90;1.30;;;;;;;17.63;58.14;101300.34;5042757;28;20583;-55
2022/06/06 11:51:05;;;;;;;2.97;1.50;;;;;;;17.39;59.27;101300.97;5044848;28;20032;-56
2022/06/06 11:54:01;;;;;;;3.97;1.67;;;;;;;17.15;59.41;101313.09;5048584;28;20028;-55
2022/06/06 11:56:53;;;;;;;1.73;1.30;;;;;;;16.58;61.06;101308.06;5040937;28;20082;-54
2022/06/06 11:59:44;;;;;;;2.67;1.30;;;;;;;16.32;61.86;101327.50;5041473;28;20033;-55
2022/06/06 12:02:33;;;;;;;3.38;1.30;;;;;;;16.08;64.00;101347.53;5044803;28;20029;-55
2022/06/06 12:05:33;;;;;;;2.03;1.30;;;;;;;15.08;67.29;101339.53;5045677;28;20060;-55
2022/06/06 12:08:28;;;;;;;4.30;1.50;;;;;;;14.67;69.53;101341.84;5046604;28;20025;-54
2022/06/06 12:11:08;;;;;;;5.18;1.58;;;;;;;14.57;71.62;101334.13;5050081;28;20056;-53
2022/06/06 12:13:52;;;;;;;4.15;1.70;;;;;;;14.69;71.80;101340.66;5050029;28;20177;-56
2022/06/06 12:16:29;;;;;;;2.80;1.70;;;;;;;14.78;72.22;101349.44;5043851;28;20036;-56
2022/06/06 12:19:28;;;;;;;4.90;1.83;;;;;;;14.73;73.56;101352.63;5048082;28;20036;-57
2022/06/06 12:22:01;;;;;;;4.38;2.30;;;;;;;14.63;74.92;101356.59;5048524;28;20025;-54
2022/06/06 12:24:44;;;;;;;3.85;2.17;;;;;;;14.50;75.58;101347.41;5053240;28;20033;-56
2022/06/06 12:27:26;;;;;;;4.55;2.35;;;;;;;14.55;76.68;101345.00;5041908;28;20029;-56
2022/06/06 12:29:54;;;;;;;4.03;2.45;;;;;;;14.64;77.26;101327.03;5045288;28;20469;-55
2022/06/06 12:32:42;;;;;;;3.05;2.58;;;;;;;14.71;77.65;101332.44;5050232;28;20108;-56
2022/06/06 12:35:31;;;;;;;3.45;2.65;;;;;;;14.80;78.35;101331.34;5052730;28;20048;-54
2022/06/06 12:38:18;;;;;;;4.50;2.50;;;;;;;14.83;78.11;101330.97;5043239;28;20037;-55
2022/06/06 12:40:51;;;;;;;6.35;2.60;;;;;;;14.85;78.22;101321.75;5045262;28;20021;-55